Time;durP1;ratioP1;P1;durP2;ratioP2;P2;SDS_P1;SDS_P2;PMS_P1;PMS_P2;Temp;Humidity;BMP_temperature;BMP_pressure;BME280_temperature;BME280_humidity;BME280_pressure;Samples;Min_cycle;Max_cycle;Signal;HPM_P1;HPM_P2
2023/04/29 00:00:46;;;;;;;1.08;0.60;;;;;;;25.28;35.96;101319.94;4131560;28;20046;-69
2023/04/29 00:02:48;;;;;;;2.47;0.77;;;;;;;25.27;35.77;101307.47;4131227;28;20161;-69
2023/04/29 00:04:50;;;;;;;;;;;;;;;25.27;36.02;101314.69;4131098;28;20499;-68
2023/04/29 00:06:53;;;;;;;0.65;0.50;;;;;;;25.24;35.88;101310.44;4131352;28;19921;-68
2023/04/29 00:08:55;;;;;;;0.60;0.50;;;;;;;25.28;35.91;101309.16;4131190;28;20073;-69
2023/04/29 00:10:56;;;;;;;0.88;0.50;;;;;;;25.29;35.76;101302.78;4131407;28;20050;-68
2023/04/29 00:12:58;;;;;;;1.80;0.60;;;;;;;25.27;35.58;101294.00;4131131;28;20121;-69
2023/04/29 00:15:01;;;;;;;0.93;0.57;;;;;;;25.28;36.05;101303.78;4130392;28;20128;-70
2023/04/29 00:17:03;;;;;;;1.23;0.52;;;;;;;25.29;35.61;101299.28;4131362;28;20061;-68
2023/04/29 00:19:05;;;;;;;1.45;0.57;;;;;;;25.29;35.53;101305.50;4114052;28;20107;-70
2023/04/29 00:21:07;;;;;;;;;;;;;;;25.28;36.06;101298.41;4131487;28;20054;-69
2023/04/29 00:23:08;;;;;;;1.67;0.60;;;;;;;25.25;35.90;101293.31;4131342;28;19922;-69
2023/04/29 00:25:11;;;;;;;0.85;0.50;;;;;;;25.28;35.95;101297.56;4130070;28;20752;-70
2023/04/29 00:27:12;;;;;;;1.55;0.57;;;;;;;25.27;35.71;101285.09;4130899;28;20520;-69
2023/04/29 00:29:14;;;;;;;1.00;0.50;;;;;;;25.31;35.81;101295.44;4131182;28;20072;-69
2023/04/29 00:31:16;;;;;;;;;;;;;;;25.29;36.03;101294.72;4131632;28;20423;-70
2023/04/29 00:33:17;;;;;;;1.35;0.50;;;;;;;25.27;35.51;101290.47;4131112;28;20275;-69
2023/04/29 00:35:20;;;;;;;1.58;0.60;;;;;;;25.29;35.99;101293.88;4130083;28;20146;-69
2023/04/29 00:37:22;;;;;;;1.60;0.70;;;;;;;25.29;35.52;101293.88;4130900;28;20053;-70
2023/04/29 00:39:23;;;;;;;1.10;0.52;;;;;;;25.29;35.67;101286.66;4130883;28;20058;-69
2023/04/29 00:41:25;;;;;;;;;;;;;;;25.28;35.94;101293.00;4131170;28;20108;-68
2023/04/29 00:43:26;;;;;;;1.15;0.30;;;;;;;25.26;35.62;101296.84;4130981;28;20001;-71
2023/04/29 00:45:28;;;;;;;0.68;0.50;;;;;;;25.27;35.86;101291.31;4130108;28;20074;-69
2023/04/29 00:47:30;;;;;;;1.05;0.60;;;;;;;25.29;35.64;101288.50;4130473;28;20056;-71
2023/04/29 00:49:31;;;;;;;0.93;0.43;;;;;;;25.29;35.76;101292.03;4130826;28;20113;-71
2023/04/29 00:51:33;;;;;;;;;;;;;;;25.29;35.75;101285.81;4131220;28;20112;-68
2023/04/29 00:53:37;;;;;;;1.20;0.47;;;;;;;25.28;35.53;101282.25;4113572;28;20284;-69
2023/04/29 00:55:40;;;;;;;0.90;0.40;;;;;;;25.31;35.68;101287.38;4130006;28;20042;-71
2023/04/29 00:57:42;;;;;;;1.17;0.40;;;;;;;25.30;35.99;101291.03;4130396;28;20050;-69
2023/04/29 00:59:44;;;;;;;1.23;0.63;;;;;;;25.25;35.83;101278.97;4130824;28;20116;-68
2023/04/29 01:01:46;;;;;;;1.25;0.57;;;;;;;25.30;35.32;101282.97;4113449;28;20046;-69
2023/04/29 01:03:49;;;;;;;;;;;;;;;25.29;36.00;101280.41;4131078;28;20046;-69
2023/04/29 01:06:02;;;;;;;1.52;0.60;;;;;;;25.26;35.77;101276.13;4129874;28;20353;-71
2023/04/29 01:08:25;;;;;;;1.58;0.50;;;;;;;25.32;35.88;101281.00;4130872;28;20074;-68
2023/04/29 01:10:28;;;;;;;0.95;0.40;;;;;;;25.30;35.73;101274.03;4130270;28;20125;-70
2023/04/29 01:12:35;;;;;;;1.02;0.50;;;;;;;25.32;35.25;101274.75;4113274;28;20105;-68
2023/04/29 01:14:38;;;;;;;1.40;0.70;;;;;;;25.33;35.45;101279.97;4129989;28;20576;-68
2023/04/29 01:16:47;;;;;;;1.25;0.55;;;;;;;25.29;35.32;101278.56;4130630;28;20046;-69
2023/04/29 01:18:53;;;;;;;1.40;0.50;;;;;;;25.33;35.19;101282.69;4130670;28;20479;-68
2023/04/29 01:20:57;;;;;;;0.70;0.40;;;;;;;25.33;35.43;101281.84;4130516;28;20504;-69
2023/04/29 01:22:58;;;;;;;0.75;0.40;;;;;;;25.32;35.04;101282.81;4130359;28;20142;-69
2023/04/29 01:25:00;;;;;;;1.23;0.40;;;;;;;25.28;35.33;101276.03;4129234;28;20047;-69
2023/04/29 01:27:13;;;;;;;0.88;0.50;;;;;;;25.33;35.72;101282.69;4113055;28;20126;-69
2023/04/29 01:29:46;;;;;;;1.05;0.50;;;;;;;25.33;35.51;101279.16;4130464;28;20065;-69
2023/04/29 01:32:02;;;;;;;1.30;0.50;;;;;;;25.32;35.74;101272.06;4130574;28;20130;-69
2023/04/29 01:34:16;;;;;;;2.08;0.60;;;;;;;25.34;35.62;101280.84;4130407;28;20065;-69
2023/04/29 01:36:38;;;;;;;1.02;0.40;;;;;;;25.35;35.47;101280.72;4129815;28;20046;-69
2023/04/29 01:38:58;;;;;;;;;;;;;;;25.31;35.73;101284.69;4065343;29;20052;-69
2023/04/29 01:41:14;;;;;;;1.17;0.40;;;;;;;25.31;35.81;101287.38;4064586;29;19946;-69
2023/04/29 01:43:17;;;;;;;1.23;0.47;;;;;;;25.31;35.26;101286.50;4064822;29;20084;-69
2023/04/29 01:45:21;;;;;;;1.02;0.60;;;;;;;25.31;35.56;101286.50;4063984;29;20626;-69
2023/04/29 01:47:24;;;;;;;1.05;0.50;;;;;;;25.27;35.48;101285.09;4064884;29;20056;-69
2023/04/29 01:49:27;;;;;;;1.83;0.57;;;;;;;25.30;35.63;101282.97;4064710;29;20056;-69
2023/04/29 01:51:28;;;;;;;1.48;0.50;;;;;;;25.30;35.40;101280.28;4064937;29;20056;-69
2023/04/29 01:53:30;;;;;;;0.93;0.50;;;;;;;25.31;35.08;101283.81;4065010;29;20055;-69
2023/04/29 01:55:32;;;;;;;;;;;;;;;25.30;35.69;101279.41;4064005;29;20090;-71
2023/04/29 01:57:34;;;;;;;2.00;0.60;;;;;;;25.29;35.19;101280.41;4065124;29;19923;-69
2023/04/29 01:59:35;;;;;;;1.05;0.40;;;;;;;25.31;35.42;101281.97;4067788;29;20609;-68
2023/04/29 02:01:37;;;;;;;1.38;0.43;;;;;;;25.32;35.08;101286.38;4067693;29;20052;-69
2023/04/29 02:03:40;;;;;;;1.88;0.50;;;;;;;25.32;35.48;101283.69;4067653;29;20056;-70
2023/04/29 02:05:42;;;;;;;2.05;0.60;;;;;;;25.29;35.56;101277.72;4066713;29;20548;-70
2023/04/29 02:07:44;;;;;;;0.95;0.50;;;;;;;25.33;35.44;101284.53;4067619;29;20048;-69
2023/04/29 02:09:45;;;;;;;1.73;0.47;;;;;;;25.32;35.45;101282.81;4067094;29;20526;-69
2023/04/29 02:11:47;;;;;;;1.52;0.60;;;;;;;25.28;35.20;101279.56;4067521;29;20570;-69
2023/04/29 02:13:48;;;;;;;0.98;0.50;;;;;;;25.30;35.57;101279.41;4067662;29;20183;-69
2023/04/29 02:15:50;;;;;;;0.80;0.50;;;;;;;25.32;35.37;101275.63;4091921;28;20077;-69
2023/04/29 02:17:55;;;;;;;0.90;0.52;;;;;;;25.29;35.37;101267.81;4133415;28;20488;-70
2023/04/29 02:19:57;;;;;;;1.20;0.50;;;;;;;25.33;35.27;101279.16;4133182;28;20081;-69
2023/04/29 02:21:58;;;;;;;1.65;0.60;;;;;;;25.32;35.40;101275.63;4132840;28;20050;-69
2023/04/29 02:24:00;;;;;;;1.58;0.50;;;;;;;25.32;35.45;101274.75;4132692;28;20050;-70
2023/04/29 02:26:05;;;;;;;1.42;0.65;;;;;;;25.32;35.38;101282.81;4132123;28;20052;-69
2023/04/29 02:28:06;;;;;;;1.60;0.60;;;;;;;25.32;35.48;101282.81;4132868;28;20046;-69
2023/04/29 02:30:08;;;;;;;;;;;;;;;25.30;35.59;101288.34;4133138;28;20046;-70
2023/04/29 02:32:10;;;;;;;1.52;0.55;;;;;;;25.27;35.53;101282.38;4133044;28;20280;-70
2023/04/29 02:34:11;;;;;;;;;;;;;;;25.27;35.75;101294.00;4133367;28;20070;-69
2023/04/29 02:36:13;;;;;;;1.52;0.50;;;;;;;25.26;35.20;101294.97;4131709;28;19921;-69
2023/04/29 02:38:15;;;;;;;4.45;0.70;;;;;;;25.29;35.34;101292.03;4115127;28;20401;-69
2023/04/29 02:40:17;;;;;;;;;;;;;;;25.30;35.55;101295.56;4133167;28;20065;-70
2023/04/29 02:42:19;;;;;;;0.93;0.50;;;;;;;25.27;35.15;101296.69;4132860;28;19968;-70
2023/04/29 02:44:20;;;;;;;2.30;0.80;;;;;;;25.31;35.26;101299.97;4132501;28;20069;-69
2023/04/29 02:46:22;;;;;;;3.00;0.60;;;;;;;25.31;35.19;101299.97;4131799;28;20050;-69
2023/04/29 02:48:24;;;;;;;1.40;0.60;;;;;;;25.31;35.28;101294.56;4132692;28;20073;-69
2023/04/29 02:50:26;;;;;;;;;;;;;;;25.29;35.27;101297.41;4132877;28;20393;-69
2023/04/29 02:52:27;;;;;;;1.77;0.77;;;;;;;25.28;34.91;101302.94;4132237;28;19922;-69
2023/04/29 02:54:29;;;;;;;1.48;0.52;;;;;;;25.29;35.33;101296.56;4132448;28;20050;-69
2023/04/29 02:56:31;;;;;;;1.90;0.70;;;;;;;25.30;35.08;101300.94;4131695;28;20049;-70
2023/04/29 02:58:33;;;;;;;1.58;0.60;;;;;;;25.29;35.43;101292.03;4132382;28;20054;-69
2023/04/29 03:00:34;;;;;;;;;;;;;;;25.29;35.51;101299.28;4132939;28;20060;-69
2023/04/29 03:02:36;;;;;;;2.17;0.60;;;;;;;25.26;35.11;101294.97;4132199;28;20012;-69
2023/04/29 03:04:38;;;;;;;2.05;0.63;;;;;;;25.28;35.01;101295.72;4132125;28;20050;-70
2023/04/29 03:06:40;;;;;;;1.38;0.70;;;;;;;25.31;35.28;101297.28;4131216;28;20046;-70
2023/04/29 03:08:42;;;;;;;;;;;;;;;25.29;35.41;101296.56;4132681;28;20097;-69
2023/04/29 03:10:45;;;;;;;1.63;0.70;;;;;;;25.26;34.92;101289.59;4131632;28;19926;-69
2023/04/29 03:12:46;;;;;;;1.90;0.60;;;;;;;25.28;35.07;101287.63;4132263;28;20046;-69
2023/04/29 03:14:48;;;;;;;1.50;0.50;;;;;;;25.28;34.87;101293.00;4132070;28;20042;-69
2023/04/29 03:16:50;;;;;;;1.25;0.50;;;;;;;25.28;34.97;101292.19;4114019;28;20058;-69
2023/04/29 03:18:51;;;;;;;2.47;0.73;;;;;;;25.27;35.45;101290.47;4132168;28;20050;-69
2023/04/29 03:20:54;;;;;;;3.15;0.88;;;;;;;25.28;35.11;101301.09;4132186;28;20430;-66
2023/04/29 03:22:56;;;;;;;2.33;0.57;;;;;;;25.28;35.04;101297.56;4131679;28;20082;-69
2023/04/29 03:24:57;;;;;;;;;;;;;;;25.27;35.10;101293.16;4132218;28;20050;-70
2023/04/29 03:26:59;;;;;;;3.33;0.68;;;;;;;25.26;34.85;101307.59;4131393;28;19922;-69
2023/04/29 03:29:00;;;;;;;3.83;1.13;;;;;;;25.29;35.05;101307.34;4131866;28;20126;-69
2023/04/29 03:31:02;;;;;;;0.85;0.50;;;;;;;25.28;35.04;101305.63;4131748;28;20112;-69
2023/04/29 03:33:04;;;;;;;1.33;0.70;;;;;;;25.25;35.05;101312.16;4132013;28;20042;-69
2023/04/29 03:35:06;;;;;;;1.48;0.80;;;;;;;25.29;35.21;101312.72;4131116;28;20106;-69
2023/04/29 03:37:07;;;;;;;1.13;0.70;;;;;;;25.28;35.04;101311.03;4131068;28;20053;-69
2023/04/29 03:39:10;;;;;;;1.55;0.80;;;;;;;25.28;35.23;101305.63;4131893;28;20050;-69
2023/04/29 03:41:12;;;;;;;1.17;0.50;;;;;;;25.27;35.04;101310.16;4131801;28;20054;-69
2023/04/29 03:43:13;;;;;;;1.70;0.70;;;;;;;25.28;34.87;101311.84;4131856;28;20050;-69
2023/04/29 03:45:15;;;;;;;1.33;0.52;;;;;;;25.28;35.00;101311.03;4130839;28;20056;-69
2023/04/29 03:47:17;;;;;;;1.50;0.70;;;;;;;25.27;35.11;101318.22;4131505;28;20046;-69
2023/04/29 03:49:19;;;;;;;1.67;0.70;;;;;;;25.29;35.26;101323.50;4131692;28;20438;-70
2023/04/29 03:51:22;;;;;;;1.27;0.80;;;;;;;25.29;34.89;101321.66;4131210;28;20054;-70
2023/04/29 03:53:25;;;;;;;1.05;0.60;;;;;;;25.29;35.02;101326.19;4131613;28;20060;-69
2023/04/29 03:55:27;;;;;;;1.10;0.68;;;;;;;25.28;34.97;101319.94;4130580;28;20133;-70
2023/04/29 03:57:28;;;;;;;1.45;0.70;;;;;;;25.28;34.73;101325.31;4131477;28;20117;-69
2023/04/29 03:59:30;;;;;;;1.77;0.80;;;;;;;25.28;34.62;101332.56;4131728;28;20042;-70
2023/04/29 04:01:32;;;;;;;1.73;0.70;;;;;;;25.27;34.44;101337.06;4131363;28;20080;-70
2023/04/29 04:03:34;;;;;;;;;;;;;;;25.24;35.04;101334.66;4131877;28;20050;-70
2023/04/29 04:05:36;;;;;;;2.05;0.90;;;;;;;25.19;35.05;101327.00;4130127;28;20414;-69
2023/04/29 04:07:38;;;;;;;2.35;0.80;;;;;;;25.24;34.75;101334.66;4131241;28;20046;-69
2023/04/29 04:09:39;;;;;;;1.60;0.90;;;;;;;25.26;34.81;101342.59;4131244;28;20493;-69
2023/04/29 04:11:41;;;;;;;;;;;;;;;25.22;34.88;101339.31;4131560;28;20050;-69
2023/04/29 04:13:43;;;;;;;2.00;0.90;;;;;;;25.21;34.81;101348.38;4131304;28;19979;-70
2023/04/29 04:15:50;;;;;;;1.77;1.00;;;;;;;25.23;34.98;101338.34;4130121;28;20427;-70
2023/04/29 04:17:51;;;;;;;2.78;1.00;;;;;;;25.22;34.48;101339.31;4131283;28;20415;-69
2023/04/29 04:19:53;;;;;;;1.88;0.80;;;;;;;25.22;34.41;101347.41;4130849;28;20141;-70
2023/04/29 04:21:55;;;;;;;;;;;;;;;25.19;34.70;101343.16;4130632;28;20054;-69
2023/04/29 04:23:57;;;;;;;2.63;1.20;;;;;;;25.17;34.41;101349.66;4131323;28;19926;-70
2023/04/29 04:25:59;;;;;;;2.95;1.20;;;;;;;25.18;34.38;101351.38;4130240;28;20042;-70
2023/04/29 04:28:00;;;;;;;;;;;;;;;25.17;34.61;101350.50;4131510;28;20524;-70
2023/04/29 04:30:02;;;;;;;1.88;0.80;;;;;;;25.16;34.77;101343.41;4130823;28;20371;-69
2023/04/29 04:32:04;;;;;;;;;;;;;;;25.16;34.74;101346.09;4131538;28;20046;-69
2023/04/29 04:34:06;;;;;;;1.92;1.15;;;;;;;25.16;34.62;101359.56;4130683;28;20303;-69
2023/04/29 04:36:08;;;;;;;3.08;1.10;;;;;;;25.19;34.51;101350.38;4129955;28;20050;-70
2023/04/29 04:38:10;;;;;;;1.98;1.05;;;;;;;25.19;34.53;101353.91;4130928;28;20050;-69
2023/04/29 04:40:12;;;;;;;2.70;1.40;;;;;;;25.18;34.76;101352.19;4131009;28;20050;-70
2023/04/29 04:42:14;;;;;;;2.55;1.30;;;;;;;25.18;34.76;101359.44;4131000;28;20050;-70
2023/04/29 04:44:15;;;;;;;1.98;1.00;;;;;;;25.18;34.55;101359.44;4131007;28;20057;-69
2023/04/29 04:46:17;;;;;;;2.42;1.40;;;;;;;25.15;34.65;101357.88;4130010;28;20427;-69
2023/04/29 04:48:19;;;;;;;3.20;1.45;;;;;;;25.17;35.02;101360.41;4130602;28;20047;-69
2023/04/29 04:50:21;;;;;;;;;;;;;;;25.15;34.63;101362.38;4131307;28;20057;-70
2023/04/29 04:52:23;;;;;;;2.42;1.27;;;;;;;25.14;34.66;101366.94;4130984;28;19976;-69
2023/04/29 04:54:24;;;;;;;2.47;1.30;;;;;;;25.17;34.38;101371.19;4131021;28;20062;-69
2023/04/29 04:56:26;;;;;;;2.17;1.40;;;;;;;25.17;34.58;101373.88;4129930;28;20043;-70
2023/04/29 04:58:27;;;;;;;2.22;1.40;;;;;;;25.18;34.48;101383.66;4130908;28;20050;-70
2023/04/29 05:00:29;;;;;;;2.65;1.48;;;;;;;25.17;34.77;101374.72;4130758;28;20515;-70
2023/04/29 05:02:30;;;;;;;2.47;1.35;;;;;;;25.17;34.36;101381.97;4130368;28;20073;-69
2023/04/29 05:04:32;;;;;;;;;;;;;;;25.16;34.65;101385.63;4131234;28;20046;-68
2023/04/29 05:06:34;;;;;;;3.13;1.60;;;;;;;25.10;34.64;101381.63;4129693;28;20496;-69
2023/04/29 05:08:36;;;;;;;2.97;1.50;;;;;;;25.16;34.36;101388.31;4130921;28;20401;-69
2023/04/29 05:10:37;;;;;;;3.05;1.50;;;;;;;25.16;34.59;101388.31;4130619;28;20094;-69
2023/04/29 05:12:39;;;;;;;2.72;1.30;;;;;;;25.16;34.75;101393.72;4130803;28;20070;-69
2023/04/29 05:14:40;;;;;;;;;;;;;;;25.14;34.91;101391.16;4131013;28;20117;-70
2023/04/29 05:16:43;;;;;;;3.50;1.60;;;;;;;25.14;34.55;101395.66;4129755;28;19921;-69
2023/04/29 05:18:45;;;;;;;3.45;1.60;;;;;;;25.15;34.61;101400.94;4130311;28;20451;-70
2023/04/29 05:20:47;;;;;;;4.15;1.40;;;;;;;25.17;34.73;101407.03;4130676;28;20445;-70
2023/04/29 05:22:48;;;;;;;3.60;1.60;;;;;;;25.17;34.30;101406.19;4130364;28;20097;-69
2023/04/29 05:24:51;;;;;;;3.08;1.70;;;;;;;25.15;34.50;101409.03;4130557;28;20046;-69
2023/04/29 05:26:53;;;;;;;3.00;1.70;;;;;;;25.17;34.42;101411.56;4129433;28;20082;-69
2023/04/29 05:28:55;;;;;;;2.75;1.60;;;;;;;25.16;34.32;101418.78;4130694;28;20074;-69
2023/04/29 05:30:57;;;;;;;3.90;2.00;;;;;;;25.16;34.62;101416.06;4130263;28;20046;-70
2023/04/29 05:32:58;;;;;;;;;;;;;;;25.15;34.83;101427.00;4131538;28;20051;-69
2023/04/29 05:35:01;;;;;;;3.13;1.90;;;;;;;25.11;34.69;101423.72;4133858;28;19928;-70
2023/04/29 05:37:02;;;;;;;3.55;1.58;;;;;;;25.15;34.12;101432.38;4132911;28;20467;-69
2023/04/29 05:39:04;;;;;;;2.85;1.60;;;;;;;25.16;34.70;101437.63;4133550;28;20047;-71
2023/04/29 05:41:05;;;;;;;3.28;1.80;;;;;;;25.17;34.50;101443.88;4133539;28;20062;-70
2023/04/29 05:43:07;;;;;;;2.97;1.60;;;;;;;25.07;34.68;101432.19;4133732;28;20117;-70
2023/04/29 05:45:09;;;;;;;;;;;;;;;25.15;34.91;101440.44;4134040;28;20104;-69
2023/04/29 05:47:10;;;;;;;3.90;1.95;;;;;;;25.13;34.37;101450.47;4132459;28;19926;-70
2023/04/29 05:49:12;;;;;;;3.40;1.95;;;;;;;25.15;34.72;101451.22;4133675;28;20150;-70
2023/04/29 05:51:14;;;;;;;3.88;1.92;;;;;;;25.14;34.29;101452.19;4132397;28;20046;-70
2023/04/29 05:53:16;;;;;;;4.13;1.85;;;;;;;25.13;34.38;101445.97;4133369;28;20047;-70
2023/04/29 05:55:18;;;;;;;3.30;1.92;;;;;;;25.01;34.58;101436.28;4116193;28;20078;-70
2023/04/29 05:57:20;;;;;;;2.65;1.40;;;;;;;25.14;34.75;101453.06;4132509;28;20514;-70
2023/04/29 05:59:21;;;;;;;3.40;1.70;;;;;;;25.15;34.67;101461.97;4133478;28;20149;-70
2023/04/29 06:01:23;;;;;;;3.38;1.70;;;;;;;25.16;34.47;101467.22;4132882;28;20054;-69
2023/04/29 06:03:25;;;;;;;3.05;1.80;;;;;;;25.16;34.34;101456.47;4133437;28;20113;-69
2023/04/29 06:05:27;;;;;;;3.63;1.88;;;;;;;25.16;34.32;101459.16;4133149;28;20104;-70
2023/04/29 06:07:29;;;;;;;3.10;1.80;;;;;;;25.16;34.73;101463.69;4132525;28;20042;-69
2023/04/29 06:09:32;;;;;;;3.33;1.75;;;;;;;25.16;34.32;101461.00;4133104;28;20133;-69
2023/04/29 06:11:33;;;;;;;4.30;2.15;;;;;;;25.16;34.95;101463.69;4133127;28;20100;-69
2023/04/29 06:13:35;;;;;;;4.05;1.80;;;;;;;25.15;34.37;101465.53;4133180;28;20124;-69
2023/04/29 06:15:37;;;;;;;4.28;2.00;;;;;;;25.14;34.73;101473.72;4132237;28;20068;-68
2023/04/29 06:17:39;;;;;;;5.40;1.63;;;;;;;25.14;34.21;101471.03;4133191;28;20053;-68
2023/04/29 06:19:40;;;;;;;4.22;2.20;;;;;;;25.14;34.47;101469.22;4133003;28;20057;-69
2023/04/29 06:21:42;;;;;;;3.75;1.98;;;;;;;25.14;34.46;101471.91;4132980;28;20073;-69
2023/04/29 06:23:44;;;;;;;4.55;2.20;;;;;;;25.15;34.44;101473.63;4115724;28;20089;-69
2023/04/29 06:25:45;;;;;;;3.40;1.92;;;;;;;25.17;34.22;101471.63;4114625;28;20065;-69
2023/04/29 06:27:48;;;;;;;3.20;1.75;;;;;;;25.13;34.41;101466.63;4132649;28;20053;-69
2023/04/29 06:29:49;;;;;;;3.72;2.05;;;;;;;25.17;34.50;101477.00;4132489;28;20050;-71
2023/04/29 06:31:52;;;;;;;3.92;2.13;;;;;;;25.17;34.31;101481.56;4132859;28;20081;-70
2023/04/29 06:33:54;;;;;;;4.55;2.25;;;;;;;25.15;34.60;101481.69;4132946;28;20054;-70
2023/04/29 06:35:56;;;;;;;3.42;1.90;;;;;;;25.14;34.66;101482.69;4131567;28;20047;-69
2023/04/29 06:37:58;;;;;;;3.40;1.90;;;;;;;25.15;34.63;101481.69;4132717;28;20562;-71
2023/04/29 06:40:00;;;;;;;3.97;1.90;;;;;;;25.15;34.55;101480.81;4115385;28;20488;-69
2023/04/29 06:42:02;;;;;;;;;;;;;;;25.13;34.57;101474.72;4133011;28;20560;-69
2023/04/29 06:44:04;;;;;;;;;;;;;;;25.10;34.92;101478.53;4132040;28;19922;-69
2023/04/29 06:46:06;;;;;;;3.50;1.98;;;;;;;25.11;34.79;101480.22;4130333;28;19937;-69
2023/04/29 06:48:07;;;;;;;4.28;2.08;;;;;;;25.13;34.61;101483.66;4132360;28;20046;-71
2023/04/29 06:50:09;;;;;;;;;;;;;;;25.14;34.72;101481.81;4132911;28;20053;-68
2023/04/29 06:52:11;;;;;;;3.70;1.80;;;;;;;25.12;34.86;101481.94;4132478;28;19921;-71
2023/04/29 06:54:13;;;;;;;4.13;2.03;;;;;;;25.15;34.73;101483.50;4132449;28;20056;-71
2023/04/29 06:56:14;;;;;;;5.68;2.30;;;;;;;25.14;34.69;101481.81;4131571;28;20061;-71
2023/04/29 06:58:18;;;;;;;3.83;1.77;;;;;;;25.09;34.70;101476.81;4115386;28;20075;-70
2023/04/29 07:00:21;;;;;;;3.78;2.05;;;;;;;25.13;34.84;101489.03;4132220;28;20050;-71
2023/04/29 07:02:23;;;;;;;5.43;2.30;;;;;;;25.13;34.45;101494.41;4132572;28;20061;-70
2023/04/29 07:04:25;;;;;;;4.45;1.90;;;;;;;25.14;34.68;101497.94;4132478;28;20058;-70
2023/04/29 07:06:26;;;;;;;;;;;;;;;25.13;34.77;101501.63;4131908;28;20046;-68
2023/04/29 07:08:28;;;;;;;3.17;1.80;;;;;;;25.12;34.85;101499.94;4132326;28;19984;-71
2023/04/29 07:10:29;;;;;;;3.50;1.63;;;;;;;25.14;34.71;101501.53;4132125;28;20061;-70
2023/04/29 07:12:31;;;;;;;4.78;2.13;;;;;;;25.15;34.61;101500.53;4132309;28;20050;-70
2023/04/29 07:14:32;;;;;;;3.80;2.05;;;;;;;25.15;34.75;101513.13;4131953;28;20054;-71
2023/04/29 07:16:34;;;;;;;4.43;2.13;;;;;;;25.14;34.51;101508.72;4131042;28;20046;-71
2023/04/29 07:18:36;;;;;;;5.20;2.30;;;;;;;25.14;34.65;101506.03;4131992;28;20043;-71
2023/04/29 07:20:38;;;;;;;3.92;1.85;;;;;;;25.11;34.54;101509.84;4132193;28;20050;-71
2023/04/29 07:22:39;;;;;;;3.90;2.30;;;;;;;25.13;34.75;101507.88;4131846;28;20424;-71
2023/04/29 07:24:41;;;;;;;4.35;1.83;;;;;;;25.13;34.81;101515.97;4132262;28;20542;-70
2023/04/29 07:26:43;;;;;;;3.88;1.92;;;;;;;25.14;34.55;101516.78;4130967;28;20093;-70
2023/04/29 07:28:46;;;;;;;4.75;2.45;;;;;;;25.15;34.56;101526.59;4131447;28;20052;-71
2023/04/29 07:30:48;;;;;;;4.13;1.92;;;;;;;25.14;34.27;101525.75;4114711;28;20129;-70
2023/04/29 07:32:50;;;;;;;4.35;2.10;;;;;;;25.15;34.38;101530.16;4131814;28;20055;-70
2023/04/29 07:34:51;;;;;;;;;;;;;;;25.14;34.69;101524.88;4132384;28;20053;-68
2023/04/29 07:36:55;;;;;;;4.85;2.30;;;;;;;25.12;34.52;101529.56;4130812;28;19925;-71
2023/04/29 07:38:58;;;;;;;4.85;2.50;;;;;;;25.13;34.55;101534.78;4131984;28;20496;-71
2023/04/29 07:40:59;;;;;;;5.00;2.30;;;;;;;25.12;34.33;101530.41;4131783;28;20046;-70
2023/04/29 07:43:03;;;;;;;4.20;2.20;;;;;;;25.12;34.79;101535.78;4131550;28;20108;-71
2023/04/29 07:45:06;;;;;;;4.15;2.20;;;;;;;25.13;34.62;101542.88;4131626;28;20133;-71
2023/04/29 07:47:07;;;;;;;5.25;2.83;;;;;;;25.13;34.36;101544.69;4113365;28;20105;-70
2023/04/29 07:49:09;;;;;;;5.18;2.55;;;;;;;25.12;34.33;101533.09;4131691;28;20137;-70
2023/04/29 07:51:14;;;;;;;5.68;2.58;;;;;;;25.14;34.49;101536.50;4131547;28;20503;-70
2023/04/29 07:53:16;;;;;;;4.45;2.30;;;;;;;25.10;34.40;101526.97;4131817;28;20530;-70
2023/04/29 07:55:21;;;;;;;4.40;2.03;;;;;;;25.14;34.43;101539.19;4131284;28;20057;-71
2023/04/29 07:57:23;;;;;;;4.35;2.17;;;;;;;25.15;34.39;101540.03;4130405;28;20047;-70
2023/04/29 07:59:24;;;;;;;;;;;;;;;25.12;34.64;101545.69;4132009;28;20142;-68
2023/04/29 08:01:27;;;;;;;5.25;2.40;;;;;;;25.11;34.31;101535.91;4131694;28;19999;-70
2023/04/29 08:03:28;;;;;;;5.43;2.22;;;;;;;25.11;34.36;101536.75;4131341;28;20474;-70
2023/04/29 08:05:31;;;;;;;3.95;2.13;;;;;;;25.10;34.66;101532.34;4131503;28;20054;-71
2023/04/29 08:07:32;;;;;;;4.50;2.47;;;;;;;25.12;34.33;101534.94;4130422;28;20042;-70
2023/04/29 08:09:34;;;;;;;4.15;2.20;;;;;;;25.11;34.27;101534.06;4131405;28;20121;-70
2023/04/29 08:11:36;;;;;;;4.70;2.45;;;;;;;25.13;34.68;101533.94;4131139;28;20416;-70
2023/04/29 08:13:37;;;;;;;4.30;2.15;;;;;;;25.12;34.46;101533.09;4131281;28;20057;-70
2023/04/29 08:15:39;;;;;;;6.13;2.90;;;;;;;25.13;34.06;101545.56;4131141;28;20419;-71
2023/04/29 08:17:41;;;;;;;5.75;2.95;;;;;;;25.12;34.50;101538.47;4130203;28;20046;-70
2023/04/29 08:19:43;;;;;;;;;;;;;;;25.11;34.49;101534.06;4130699;28;20488;-71
2023/04/29 08:21:44;;;;;;;4.10;2.40;;;;;;;25.08;34.26;101538.84;4130933;28;19929;-70
2023/04/29 08:23:46;;;;;;;4.32;2.47;;;;;;;25.11;34.31;101541.31;4131178;28;20050;-70
2023/04/29 08:25:50;;;;;;;5.25;2.53;;;;;;;25.10;34.45;101537.75;4130356;28;20069;-70
2023/04/29 08:27:52;;;;;;;4.65;2.53;;;;;;;25.07;34.38;101526.38;4114237;28;20057;-70
2023/04/29 08:29:55;;;;;;;4.75;3.00;;;;;;;25.12;34.50;101537.63;4114932;28;20493;-69
2023/04/29 08:31:56;;;;;;;5.35;3.47;;;;;;;25.12;34.52;101540.31;4114934;28;20124;-70
2023/04/29 08:33:58;;;;;;;7.00;4.13;;;;;;;25.11;34.01;101538.59;4114855;28;20055;-71
2023/04/29 08:36:02;;;;;;;6.43;3.88;;;;;;;24.99;34.06;101513.56;4114613;28;20128;-75
2023/04/29 08:38:05;;;;;;;7.40;4.15;;;;;;;25.12;34.27;101538.47;4114496;28;20126;-73
2023/04/29 08:40:08;;;;;;;6.78;4.55;;;;;;;25.13;33.91;101536.63;4114190;28;20043;-72
2023/04/29 08:42:09;;;;;;;7.05;4.40;;;;;;;25.09;34.04;101533.34;4114825;28;20055;-73
2023/04/29 08:44:11;;;;;;;8.65;4.88;;;;;;;25.11;34.14;101544.00;4114532;28;20097;-72
2023/04/29 08:46:13;;;;;;;;;;;;;;;24.99;34.63;101541.31;4114540;28;20061;-73
2023/04/29 08:48:16;;;;;;;;;;;;;;;24.91;34.77;101540.28;4115024;28;20351;-75
2023/04/29 08:50:18;;;;;;;12.90;6.55;;;;;;;24.78;34.64;101537.78;4114882;28;20304;-74
2023/04/29 08:52:19;;;;;;;;;;;;;;;24.71;34.60;101540.09;4113152;28;20390;-70
2023/04/29 08:54:21;;;;;;;11.18;7.88;;;;;;;24.68;34.58;101546.59;4114124;28;19933;-72
2023/04/29 08:56:24;;;;;;;10.73;6.85;;;;;;;24.61;34.63;101537.28;4113226;28;20043;-72
2023/04/29 08:58:33;;;;;;;15.18;8.10;;;;;;;24.65;34.72;101544.09;4113947;28;20047;-73
2023/04/29 09:00:35;;;;;;;14.13;8.50;;;;;;;24.63;34.55;101543.41;4112952;28;20038;-72
2023/04/29 09:02:43;;;;;;;11.65;8.60;;;;;;;24.56;34.73;101547.56;4113985;28;20047;-75
2023/04/29 09:04:45;;;;;;;17.13;8.43;;;;;;;24.56;35.15;101552.97;4114343;28;20131;-70
2023/04/29 09:06:47;;;;;;;22.23;9.93;;;;;;;24.56;35.22;101548.41;4111808;28;20050;-72
2023/04/29 09:08:49;;;;;;;36.50;12.05;;;;;;;24.47;35.42;101549.16;4114799;28;20535;-72
2023/04/29 09:10:51;;;;;;;22.17;9.35;;;;;;;24.49;35.46;101557.13;4115309;28;20568;-73
2023/04/29 09:12:57;;;;;;;22.67;9.65;;;;;;;24.50;35.03;101558.84;4114643;28;20051;-74
2023/04/29 09:14:59;;;;;;;18.83;9.00;;;;;;;24.50;35.34;101557.00;4116205;28;20128;-75
2023/04/29 09:17:01;;;;;;;15.20;8.75;;;;;;;24.49;35.30;101557.13;4116172;28;20138;-70
2023/04/29 09:19:06;;;;;;;15.60;9.50;;;;;;;24.51;35.34;101560.53;4117224;28;20541;-79
2023/04/29 09:21:16;;;;;;;13.63;7.93;;;;;;;24.50;35.85;101564.22;4117178;28;20054;-75
2023/04/29 09:23:36;;;;;;;13.98;8.25;;;;;;;24.49;35.52;101568.72;4116941;28;20432;-79
2023/04/29 09:25:38;;;;;;;14.02;8.18;;;;;;;24.41;35.78;101565.78;4122815;28;20349;-75
2023/04/29 09:27:40;;;;;;;18.35;12.68;;;;;;;24.42;35.26;101558.59;4132479;28;20046;-80
2023/04/29 09:29:59;;;;;;;28.05;12.13;;;;;;;24.44;35.55;101570.09;4133343;28;20381;-75
2023/04/29 09:32:17;;;;;;;22.23;10.85;;;;;;;24.40;35.57;101570.34;4132887;28;20049;-70
2023/04/29 09:34:38;;;;;;;15.15;9.68;;;;;;;24.45;35.21;101563.72;4132851;28;20128;-70
2023/04/29 09:36:47;;;;;;;13.00;9.38;;;;;;;24.35;35.04;101575.25;4131954;28;20389;-72